Time;durP1;ratioP1;P1;durP2;ratioP2;P2;SDS_P1;SDS_P2;PMS_P1;PMS_P2;Temp;Humidity;BMP_temperature;BMP_pressure;BME280_temperature;BME280_humidity;BME280_pressure;Samples;Min_cycle;Max_cycle;Signal;HPM_P1;HPM_P2
2024/03/03 00:01:57;;;;;;;28.33;12.70;;;9.00;99.90;;;;;;5078862;28;20128;-70
2024/03/03 00:04:23;;;;;;;25.67;12.65;;;8.90;99.90;;;;;;5083353;28;20055;-69
2024/03/03 00:06:48;;;;;;;31.25;13.68;;;8.80;99.90;;;;;;5076016;28;20499;-69
2024/03/03 00:09:14;;;;;;;26.08;13.13;;;8.80;99.90;;;;;;5078023;28;20040;-69
2024/03/03 00:11:39;;;;;;;26.27;13.45;;;8.70;99.90;;;;;;5067723;28;20580;-70
2024/03/03 00:14:05;;;;;;;33.97;13.57;;;8.80;99.90;;;;;;5080362;28;20059;-72
2024/03/03 00:16:34;;;;;;;30.25;13.15;;;8.70;99.90;;;;;;5080473;28;20124;-69
2024/03/03 00:18:59;;;;;;;34.92;14.15;;;8.70;99.90;;;;;;5077350;28;20067;-70
2024/03/03 00:21:25;;;;;;;29.20;13.82;;;8.70;99.90;;;;;;5065936;28;20425;-69
2024/03/03 00:23:51;;;;;;;27.23;13.60;;;8.70;99.90;;;;;;5084558;28;20107;-71
2024/03/03 00:26:17;;;;;;;31.20;13.80;;;8.70;99.90;;;;;;5078854;28;20148;-71
2024/03/03 00:28:43;;;;;;;27.67;13.20;;;8.60;99.90;;;;;;5068404;28;20032;-70
2024/03/03 00:31:08;;;;;;;33.75;15.25;;;8.60;99.90;;;;;;5065187;28;20033;-70
2024/03/03 00:33:34;;;;;;;27.20;12.52;;;8.70;99.90;;;;;;5074877;28;20086;-69
2024/03/03 00:36:00;;;;;;;27.15;13.80;;;8.60;99.90;;;;;;5077290;28;20044;-71
2024/03/03 00:38:25;;;;;;;28.52;14.23;;;8.50;99.90;;;;;;5054503;28;20036;-69
2024/03/03 00:40:51;;;;;;;34.50;14.50;;;8.50;99.90;;;;;;5058223;28;20052;-71
2024/03/03 00:43:17;;;;;;;33.35;15.98;;;8.50;99.90;;;;;;5079124;28;20036;-72
2024/03/03 00:45:42;;;;;;;28.90;14.20;;;8.50;99.90;;;;;;5085702;28;20035;-67
2024/03/03 00:48:08;;;;;;;26.67;13.95;;;8.40;99.90;;;;;;5084907;28;20567;-69
2024/03/03 00:50:34;;;;;;;31.38;15.32;;;8.50;99.90;;;;;;5083426;28;20088;-71
2024/03/03 00:53:00;;;;;;;33.78;15.52;;;8.40;99.90;;;;;;5080861;28;20028;-72
2024/03/03 00:55:25;;;;;;;36.33;16.08;;;8.40;99.90;;;;;;5077618;28;20519;-70
2024/03/03 00:57:52;;;;;;;34.45;15.18;;;8.40;99.90;;;;;;5078826;28;20115;-71
2024/03/03 01:00:18;;;;;;;31.67;15.65;;;8.40;99.90;;;;;;5084159;28;20025;-68
2024/03/03 01:02:44;;;;;;;37.85;15.55;;;8.50;99.90;;;;;;5078157;28;20040;-71
2024/03/03 01:05:10;;;;;;;36.45;16.38;;;8.50;99.90;;;;;;5077039;28;20400;-69
2024/03/03 01:07:38;;;;;;;33.78;14.93;;;8.40;99.90;;;;;;5059076;28;20062;-72
2024/03/03 01:10:07;;;;;;;;;;;8.40;99.90;;;;;;5078004;28;20032;-70
2024/03/03 01:12:32;;;;;;;32.40;14.85;;;8.50;99.90;;;;;;5071639;28;19995;-69
2024/03/03 01:14:58;;;;;;;39.17;15.75;;;8.50;99.90;;;;;;5081326;28;20582;-68
2024/03/03 01:17:23;;;;;;;35.63;17.00;;;8.60;99.90;;;;;;5063108;28;20032;-70
2024/03/03 01:19:49;;;;;;;35.05;16.25;;;8.50;99.90;;;;;;5063339;28;20660;-69
2024/03/03 01:22:15;;;;;;;40.72;16.42;;;8.50;99.90;;;;;;5082280;28;20128;-70
2024/03/03 01:24:41;;;;;;;37.60;16.25;;;8.50;99.90;;;;;;5080386;28;20489;-68
2024/03/03 01:27:06;;;;;;;39.05;17.10;;;8.50;99.90;;;;;;5084099;28;20601;-68
2024/03/03 01:29:32;;;;;;;36.92;17.45;;;8.50;99.90;;;;;;5073933;28;20040;-70
2024/03/03 01:31:58;;;;;;;38.03;17.80;;;8.50;99.90;;;;;;5078495;28;20041;-70
2024/03/03 01:34:25;;;;;;;40.35;17.23;;;8.50;99.90;;;;;;5079391;28;20043;-73
2024/03/03 01:36:52;;;;;;;42.80;18.52;;;8.50;99.90;;;;;;5077725;28;20033;-67
2024/03/03 01:39:18;;;;;;;41.15;17.48;;;8.50;99.90;;;;;;5081712;28;20665;-69
2024/03/03 01:41:49;;;;;;;42.25;17.75;;;8.50;99.90;;;;;;5084273;28;20040;-68
2024/03/03 01:44:15;;;;;;;36.60;16.38;;;8.50;99.90;;;;;;5084362;28;20028;-69
2024/03/03 01:46:42;;;;;;;35.22;18.05;;;8.50;99.90;;;;;;5083551;28;20062;-69
2024/03/03 01:49:12;;;;;;;37.72;16.42;;;8.50;99.90;;;;;;5076534;28;20040;-70
2024/03/03 01:51:40;;;;;;;36.65;17.02;;;8.50;99.90;;;;;;5080928;28;20031;-72
2024/03/03 01:54:06;;;;;;;35.33;17.42;;;8.50;99.90;;;;;;5085626;28;20554;-70
2024/03/03 01:56:34;;;;;;;42.72;18.58;;;8.50;99.90;;;;;;5077697;28;20056;-69
2024/03/03 01:59:02;;;;;;;37.40;17.73;;;8.50;99.90;;;;;;5061969;28;20033;-72
2024/03/03 02:01:29;;;;;;;;;;;8.50;99.90;;;;;;5075748;28;20361;-70
2024/03/03 02:03:56;;;;;;;39.80;17.40;;;8.40;99.90;;;;;;5079348;28;19948;-70
2024/03/03 02:06:25;;;;;;;37.92;16.60;;;8.30;99.90;;;;;;5078181;28;20033;-69
2024/03/03 02:08:50;;;;;;;33.95;16.70;;;8.20;99.90;;;;;;5077917;28;20104;-69
2024/03/03 02:11:16;;;;;;;40.88;18.77;;;8.20;99.90;;;;;;5077051;28;20073;-70
2024/03/03 02:13:42;;;;;;;38.90;18.08;;;8.20;99.90;;;;;;5077736;28;20051;-71
2024/03/03 02:16:07;;;;;;;37.90;18.10;;;8.30;99.90;;;;;;5063305;28;20040;-69
2024/03/03 02:18:33;;;;;;;43.85;18.20;;;8.20;99.90;;;;;;5060790;28;20492;-69
2024/03/03 02:20:58;;;;;;;38.72;16.55;;;8.20;99.90;;;;;;5080030;28;20023;-69
2024/03/03 02:23:24;;;;;;;40.78;18.38;;;8.20;99.90;;;;;;5074338;28;20057;-72
2024/03/03 02:25:50;;;;;;;43.55;19.38;;;8.10;99.90;;;;;;5059097;28;20032;-70
2024/03/03 02:28:19;;;;;;;45.72;16.98;;;8.10;99.90;;;;;;5073994;28;20673;-71
2024/03/03 02:30:45;;;;;;;41.60;18.33;;;8.10;99.90;;;;;;5081060;28;20131;-69
2024/03/03 02:33:10;;;;;;;41.08;19.70;;;8.10;99.90;;;;;;5083397;28;20111;-72
2024/03/03 02:35:36;;;;;;;43.78;18.45;;;7.90;99.90;;;;;;5080869;28;20181;-68
2024/03/03 02:38:02;;;;;;;42.95;18.98;;;7.90;99.90;;;;;;5074125;28;20032;-70
2024/03/03 02:40:27;;;;;;;41.42;18.55;;;7.90;99.90;;;;;;5074962;28;20645;-69
2024/03/03 02:42:53;;;;;;;45.08;19.27;;;7.90;99.90;;;;;;5078213;28;20047;-68
2024/03/03 02:45:18;;;;;;;42.67;18.50;;;7.90;99.90;;;;;;5074221;28;20507;-70
2024/03/03 02:47:44;;;;;;;39.47;17.35;;;7.90;99.90;;;;;;5076080;28;20653;-74
2024/03/03 02:50:10;;;;;;;40.80;19.00;;;7.90;99.90;;;;;;5077247;28;20060;-70
2024/03/03 02:52:35;;;;;;;47.25;19.55;;;7.90;99.90;;;;;;5072391;28;20515;-70
2024/03/03 02:55:01;;;;;;;47.83;19.88;;;7.90;99.90;;;;;;5073324;28;20056;-70
2024/03/03 02:57:26;;;;;;;45.50;18.67;;;7.90;99.90;;;;;;5076650;28;20032;-72
2024/03/03 02:59:54;;;;;;;44.45;17.45;;;7.90;99.90;;;;;;5082467;28;20031;-69
2024/03/03 03:02:20;;;;;;;42.53;19.25;;;7.90;99.90;;;;;;5077580;28;20036;-69
2024/03/03 03:04:45;;;;;;;42.70;18.63;;;7.90;99.90;;;;;;5083280;28;20048;-69
2024/03/03 03:07:12;;;;;;;40.92;18.58;;;7.80;99.90;;;;;;5079353;28;20031;-71
2024/03/03 03:09:38;;;;;;;47.72;19.85;;;7.80;99.90;;;;;;5072808;28;20036;-69
2024/03/03 03:12:04;;;;;;;44.22;19.77;;;7.70;99.90;;;;;;5080560;28;20037;-71
2024/03/03 03:14:29;;;;;;;47.40;19.33;;;7.70;99.90;;;;;;5066606;28;20604;-68
2024/03/03 03:16:55;;;;;;;41.13;18.38;;;7.70;99.90;;;;;;5080676;28;20173;-68
2024/03/03 03:19:21;;;;;;;46.50;19.92;;;7.70;99.90;;;;;;5077663;28;20051;-73
2024/03/03 03:21:47;;;;;;;46.50;19.80;;;7.60;99.90;;;;;;5073617;28;20496;-70
2024/03/03 03:24:12;;;;;;;51.17;20.48;;;7.60;99.90;;;;;;5079971;28;20026;-73
2024/03/03 03:26:38;;;;;;;46.35;21.88;;;7.60;99.90;;;;;;5071146;28;20036;-71
2024/03/03 03:29:03;;;;;;;45.30;20.85;;;7.50;99.90;;;;;;5074378;28;20036;-70
2024/03/03 03:31:29;;;;;;;48.38;20.75;;;7.50;99.90;;;;;;5080270;28;20152;-70
2024/03/03 03:33:55;;;;;;;46.35;20.55;;;7.40;99.90;;;;;;5067763;28;20035;-69
2024/03/03 03:36:21;;;;;;;47.35;22.25;;;7.40;99.90;;;;;;5066105;28;20125;-70
2024/03/03 03:38:46;;;;;;;49.88;21.17;;;7.40;99.90;;;;;;5077452;28;20476;-69
2024/03/03 03:41:12;;;;;;;46.20;20.08;;;7.40;99.90;;;;;;5061490;28;20028;-68
2024/03/03 03:43:38;;;;;;;44.92;20.75;;;7.40;99.90;;;;;;5079679;28;20574;-68
2024/03/03 03:46:03;;;;;;;49.03;21.08;;;7.30;99.90;;;;;;5079082;28;20448;-70
2024/03/03 03:48:29;;;;;;;50.10;21.58;;;7.40;99.90;;;;;;5074113;28;20026;-69
2024/03/03 03:50:55;;;;;;;52.50;19.88;;;7.30;99.90;;;;;;5067384;28;20034;-69
2024/03/03 03:53:21;;;;;;;48.55;21.00;;;7.30;99.90;;;;;;5062997;28;20413;-68
2024/03/03 03:55:47;;;;;;;43.67;20.65;;;7.20;99.90;;;;;;5062001;28;20040;-69
2024/03/03 03:58:13;;;;;;;54.17;21.75;;;7.20;99.90;;;;;;5075092;28;20040;-69
2024/03/03 04:00:38;;;;;;;51.50;21.95;;;7.20;99.90;;;;;;5063901;28;20025;-70
2024/03/03 04:03:05;;;;;;;46.80;20.95;;;7.10;99.90;;;;;;5081923;28;20679;-69
2024/03/03 04:05:32;;;;;;;49.63;21.80;;;7.10;99.90;;;;;;5063806;28;20670;-68
2024/03/03 04:07:57;;;;;;;53.70;21.58;;;7.00;99.90;;;;;;5085394;28;20039;-69
2024/03/03 04:10:23;;;;;;;51.97;22.00;;;7.10;99.90;;;;;;5072656;28;20369;-70
2024/03/03 04:12:49;;;;;;;50.70;22.15;;;7.10;99.90;;;;;;5077335;28;20485;-70
2024/03/03 04:15:15;;;;;;;51.63;21.70;;;7.10;99.90;;;;;;5079548;28;20020;-71
2024/03/03 04:17:41;;;;;;;48.70;21.20;;;7.00;99.90;;;;;;5057964;28;20056;-70
2024/03/03 04:20:07;;;;;;;53.47;22.00;;;7.00;99.90;;;;;;5087068;28;20032;-69
2024/03/03 04:22:33;;;;;;;51.78;21.48;;;7.00;99.90;;;;;;5063881;28;20029;-69
2024/03/03 04:24:59;;;;;;;50.45;20.70;;;6.90;99.90;;;;;;5068019;28;20050;-71
2024/03/03 04:27:25;;;;;;;49.85;22.13;;;6.90;99.90;;;;;;5081466;28;20059;-70
2024/03/03 04:29:50;;;;;;;59.10;23.83;;;7.00;99.90;;;;;;5077436;28;20575;-67
2024/03/03 04:32:16;;;;;;;51.58;23.17;;;6.90;99.90;;;;;;5074300;28;20032;-69
2024/03/03 04:34:42;;;;;;;52.88;22.13;;;6.90;99.90;;;;;;5077561;28;20036;-70
2024/03/03 04:37:07;;;;;;;62.38;24.95;;;6.90;99.90;;;;;;5064816;28;20396;-71
2024/03/03 04:39:34;;;;;;;54.83;22.20;;;6.90;99.90;;;;;;5077732;28;20124;-71
2024/03/03 04:42:01;;;;;;;62.65;22.52;;;6.80;99.90;;;;;;5087840;28;20020;-71
2024/03/03 04:44:26;;;;;;;52.58;22.95;;;6.80;99.90;;;;;;5083055;28;20040;-70
2024/03/03 04:46:52;;;;;;;52.83;22.83;;;6.80;99.90;;;;;;5062893;28;20048;-69
2024/03/03 04:49:18;;;;;;;53.90;23.08;;;6.80;99.90;;;;;;5079295;28;20036;-71
2024/03/03 04:51:43;;;;;;;59.08;24.08;;;6.80;99.90;;;;;;5077167;28;20067;-70
2024/03/03 04:54:09;;;;;;;57.10;24.45;;;6.90;99.90;;;;;;5075304;28;20431;-69
2024/03/03 04:56:34;;;;;;;62.72;25.05;;;6.90;99.90;;;;;;5066726;28;20047;-68
2024/03/03 04:59:00;;;;;;;59.47;25.52;;;6.90;99.90;;;;;;5081076;28;20083;-69
2024/03/03 05:01:26;;;;;;;59.47;23.88;;;6.90;99.90;;;;;;5079920;28;20028;-69
2024/03/03 05:03:52;;;;;;;64.53;26.10;;;6.90;99.90;;;;;;5077715;28;20481;-70
2024/03/03 05:06:18;;;;;;;64.20;25.70;;;6.80;99.90;;;;;;5079981;28;20032;-69
2024/03/03 05:08:44;;;;;;;64.93;25.15;;;6.90;99.90;;;;;;5085494;28;20137;-70
2024/03/03 05:11:10;;;;;;;58.13;25.00;;;6.90;99.90;;;;;;5073521;28;20054;-68
2024/03/03 05:13:35;;;;;;;57.90;23.17;;;6.90;99.90;;;;;;5080350;28;20040;-71
2024/03/03 05:16:02;;;;;;;57.28;24.00;;;6.80;99.90;;;;;;5079330;28;20528;-70
2024/03/03 05:18:27;;;;;;;56.92;24.17;;;6.70;99.90;;;;;;5071958;28;20024;-73
2024/03/03 05:20:53;;;;;;;59.30;23.40;;;6.70;99.90;;;;;;5075426;28;20044;-69
2024/03/03 05:23:19;;;;;;;49.90;22.75;;;6.70;99.90;;;;;;5078132;28;20024;-68
2024/03/03 05:25:44;;;;;;;57.70;24.30;;;6.70;99.90;;;;;;5073287;28;20037;-72
2024/03/03 05:28:10;;;;;;;54.83;23.20;;;6.70;99.90;;;;;;5062209;28;20020;-69
2024/03/03 05:30:38;;;;;;;56.97;23.92;;;6.70;99.90;;;;;;5079766;28;20036;-70
2024/03/03 05:33:06;;;;;;;51.42;23.00;;;6.70;99.90;;;;;;5081914;28;20032;-68
2024/03/03 05:35:31;;;;;;;47.67;22.17;;;6.60;99.90;;;;;;5058593;28;20055;-68
2024/03/03 05:37:57;;;;;;;58.03;22.77;;;6.50;99.90;;;;;;5078318;28;20040;-70
2024/03/03 05:40:22;;;;;;;55.75;23.67;;;6.50;99.90;;;;;;5076095;28;20535;-68
2024/03/03 05:42:48;;;;;;;51.42;23.25;;;6.50;99.90;;;;;;5078081;28;20645;-70
2024/03/03 05:45:14;;;;;;;56.83;23.23;;;6.40;99.90;;;;;;5077689;28;20047;-69
2024/03/03 05:47:40;;;;;;;49.85;21.85;;;6.50;99.90;;;;;;5085372;28;20692;-70
2024/03/03 05:50:06;;;;;;;60.80;24.17;;;6.40;99.90;;;;;;5082053;28;20032;-68
2024/03/03 05:52:32;;;;;;;49.17;21.05;;;6.40;99.90;;;;;;5080261;28;20125;-71
2024/03/03 05:54:57;;;;;;;51.33;23.23;;;6.40;99.90;;;;;;5074160;28;20179;-67
2024/03/03 05:57:23;;;;;;;56.80;23.30;;;6.30;99.90;;;;;;5076362;28;20039;-69
2024/03/03 05:59:48;;;;;;;60.95;23.02;;;6.30;99.90;;;;;;5065386;28;20036;-71
2024/03/03 06:02:14;;;;;;;54.55;22.95;;;6.20;99.90;;;;;;5077795;28;20033;-71
2024/03/03 06:04:40;;;;;;;56.60;23.70;;;6.10;99.90;;;;;;5075107;28;20033;-68
2024/03/03 06:07:05;;;;;;;64.60;23.77;;;6.00;99.90;;;;;;5060729;28;20028;-69
2024/03/03 06:09:31;;;;;;;52.97;23.15;;;6.10;99.90;;;;;;5075405;28;20229;-67
2024/03/03 06:12:00;;;;;;;58.03;24.10;;;6.10;99.90;;;;;;5077700;28;20024;-68
2024/03/03 06:14:26;;;;;;;53.95;22.95;;;6.20;99.90;;;;;;5074106;28;20039;-70
2024/03/03 06:16:51;;;;;;;56.15;23.67;;;6.00;99.90;;;;;;5081833;28;20496;-67
2024/03/03 06:19:17;;;;;;;54.65;23.35;;;6.10;99.90;;;;;;5074881;28;20040;-71
2024/03/03 06:21:42;;;;;;;58.17;24.88;;;6.10;99.90;;;;;;5066372;28;20485;-69
2024/03/03 06:24:10;;;;;;;51.70;23.27;;;6.10;99.90;;;;;;5060490;28;20071;-69
2024/03/03 06:26:35;;;;;;;56.33;24.23;;;6.10;99.90;;;;;;5071166;28;20397;-68
2024/03/03 06:29:03;;;;;;;59.85;24.35;;;6.10;99.90;;;;;;5071268;28;20268;-69
2024/03/03 06:31:28;;;;;;;54.13;22.98;;;6.20;99.90;;;;;;5061944;28;20032;-71
2024/03/03 06:33:54;;;;;;;61.50;25.67;;;6.20;99.90;;;;;;5070602;28;20043;-68
2024/03/03 06:36:20;;;;;;;60.38;24.63;;;6.20;99.90;;;;;;5077846;28;20068;-70
2024/03/03 06:38:47;;;;;;;63.72;25.40;;;6.20;99.90;;;;;;5080719;28;20040;-69
2024/03/03 06:41:13;;;;;;;67.18;25.25;;;6.30;99.90;;;;;;5083647;28;20039;-69
2024/03/03 06:43:41;;;;;;;65.10;24.77;;;6.40;99.90;;;;;;5083636;28;20028;-72
2024/03/03 06:46:07;;;;;;;53.80;23.33;;;6.40;99.90;;;;;;5079728;28;20666;-69
2024/03/03 06:48:34;;;;;;;63.10;24.42;;;6.40;99.90;;;;;;5080925;28;20059;-72
2024/03/03 06:51:00;;;;;;;58.45;25.38;;;6.40;99.90;;;;;;5062439;28;20050;-70
2024/03/03 06:53:25;;;;;;;62.65;26.55;;;6.50;99.90;;;;;;5067065;28;20028;-72
2024/03/03 06:55:51;;;;;;;62.67;25.88;;;6.50;99.90;;;;;;5085213;28;20033;-69
2024/03/03 06:58:17;;;;;;;58.60;24.88;;;6.60;99.90;;;;;;5085380;28;20047;-70
2024/03/03 07:00:42;;;;;;;63.92;25.30;;;6.50;99.90;;;;;;5081871;28;20446;-72
2024/03/03 07:05:34;;;;;;;65.75;24.23;;;6.60;99.90;;;;;;5081338;28;20056;-69
2024/03/03 07:08:00;;;;;;;57.15;25.00;;;6.70;99.90;;;;;;5082129;28;20064;-72
2024/03/03 07:10:26;;;;;;;64.72;26.70;;;6.70;99.90;;;;;;5069500;28;20028;-69
2024/03/03 07:12:51;;;;;;;63.25;24.88;;;6.70;99.90;;;;;;5085459;28;20068;-69
2024/03/03 07:15:17;;;;;;;62.05;24.80;;;6.70;99.90;;;;;;5083121;28;20028;-70
2024/03/03 07:17:42;;;;;;;60.58;26.50;;;6.80;99.90;;;;;;5063877;28;20050;-70
2024/03/03 07:20:10;;;;;;;61.28;25.85;;;6.80;99.90;;;;;;5083841;28;20074;-69
2024/03/03 07:22:36;;;;;;;60.13;24.92;;;6.90;99.90;;;;;;5080802;28;20516;-71
2024/03/03 07:25:05;;;;;;;53.90;24.10;;;6.90;99.90;;;;;;5085947;28;20056;-72
2024/03/03 07:27:31;;;;;;;67.80;27.05;;;7.00;99.90;;;;;;5083393;28;20028;-71
2024/03/03 07:29:57;;;;;;;69.22;26.42;;;7.00;99.90;;;;;;5068860;28;20067;-69
2024/03/03 07:32:23;;;;;;;52.88;24.98;;;7.10;99.90;;;;;;5081917;28;20556;-71
2024/03/03 07:34:50;;;;;;;60.22;26.00;;;7.20;99.90;;;;;;5081226;28;20040;-71
2024/03/03 07:37:16;;;;;;;62.17;26.55;;;7.20;99.90;;;;;;5083089;28;20073;-71
2024/03/03 07:39:42;;;;;;;62.10;27.92;;;7.20;99.90;;;;;;5080702;28;20146;-71
2024/03/03 07:42:08;;;;;;;63.70;27.88;;;7.30;99.90;;;;;;5080195;28;20548;-69
2024/03/03 07:44:34;;;;;;;61.08;26.77;;;7.40;99.90;;;;;;5082126;28;20389;-70
2024/03/03 07:46:59;;;;;;;61.00;25.90;;;7.50;99.90;;;;;;5082125;28;20404;-70
2024/03/03 07:49:25;;;;;;;55.38;26.10;;;7.50;99.90;;;;;;5080021;28;20492;-70
2024/03/03 07:51:51;;;;;;;60.08;26.30;;;7.60;99.90;;;;;;5084435;28;20517;-69
2024/03/03 07:54:16;;;;;;;58.08;27.45;;;7.60;99.90;;;;;;5078735;28;20070;-69
2024/03/03 07:56:42;;;;;;;59.95;26.85;;;7.70;99.90;;;;;;5075185;28;20037;-74
2024/03/03 07:59:08;;;;;;;59.78;26.85;;;7.80;99.90;;;;;;5078901;28;20028;-69
2024/03/03 08:01:35;;;;;;;61.92;26.90;;;7.80;99.90;;;;;;5071657;28;20400;-69
2024/03/03 08:04:01;;;;;;;60.15;26.77;;;7.90;99.90;;;;;;5063844;28;20493;-70
2024/03/03 08:06:26;;;;;;;60.38;28.70;;;8.00;99.90;;;;;;5072823;28;20050;-71
2024/03/03 08:08:52;;;;;;;66.40;28.05;;;8.00;99.90;;;;;;5075969;28;20020;-68
2024/03/03 08:11:18;;;;;;;66.93;28.33;;;8.20;99.90;;;;;;5072112;28;20127;-71
2024/03/03 08:13:43;;;;;;;64.47;28.00;;;8.20;99.90;;;;;;5084860;28;20036;-70
2024/03/03 08:16:09;;;;;;;61.05;27.42;;;8.30;99.90;;;;;;5079104;28;20028;-73
2024/03/03 08:18:34;;;;;;;61.95;26.98;;;8.30;99.90;;;;;;5063076;28;20103;-68
2024/03/03 08:21:00;;;;;;;68.22;29.55;;;8.40;99.90;;;;;;5081662;28;20040;-72
2024/03/03 08:23:26;;;;;;;62.17;26.88;;;8.50;99.90;;;;;;5075695;28;20032;-68
2024/03/03 08:25:51;;;;;;;69.65;28.98;;;8.60;99.90;;;;;;5075439;28;20041;-69
2024/03/03 08:28:17;;;;;;;68.50;28.60;;;8.70;99.90;;;;;;5075104;28;20048;-71
2024/03/03 08:30:43;;;;;;;57.28;27.02;;;8.70;99.90;;;;;;5078769;28;20032;-68
2024/03/03 08:33:08;;;;;;;60.15;27.27;;;8.80;99.90;;;;;;5062434;28;20452;-70
2024/03/03 08:35:34;;;;;;;66.95;27.73;;;8.90;99.90;;;;;;5076974;28;20408;-72
2024/03/03 08:38:00;;;;;;;60.97;25.95;;;9.00;99.90;;;;;;5073843;28;20052;-76
2024/03/03 08:40:25;;;;;;;57.38;26.00;;;9.10;99.90;;;;;;5078240;28;20404;-69
2024/03/03 08:42:51;;;;;;;57.13;26.85;;;9.10;99.90;;;;;;5076457;28;20119;-69
2024/03/03 08:45:17;;;;;;;60.88;26.35;;;9.30;99.90;;;;;;5083855;28;20036;-72
2024/03/03 08:47:43;;;;;;;56.17;25.65;;;9.30;99.90;;;;;;5081308;28;20683;-70
2024/03/03 08:50:09;;;;;;;60.22;26.65;;;9.40;99.90;;;;;;5078624;28;20064;-67
2024/03/03 08:52:36;;;;;;;57.00;26.50;;;9.50;99.90;;;;;;5075470;28;20429;-69
2024/03/03 08:55:03;;;;;;;51.90;24.92;;;9.60;99.90;;;;;;5069851;28;20115;-69
2024/03/03 08:57:29;;;;;;;53.88;25.58;;;9.70;99.90;;;;;;5061542;28;20024;-69
2024/03/03 08:59:55;;;;;;;62.55;28.17;;;9.80;99.90;;;;;;5074807;28;20032;-71
2024/03/03 09:02:21;;;;;;;56.47;27.15;;;9.90;99.90;;;;;;5073899;28;20092;-66
2024/03/03 09:04:47;;;;;;;57.67;26.83;;;10.00;99.90;;;;;;5079573;28;20039;-68
2024/03/03 09:07:12;;;;;;;56.63;27.83;;;10.00;99.90;;;;;;5077691;28;20111;-68
2024/03/03 09:09:38;;;;;;;56.58;28.05;;;10.10;99.90;;;;;;5080498;28;20510;-69
2024/03/03 09:12:05;;;;;;;60.28;27.20;;;10.10;99.90;;;;;;5074319;28;20029;-68
2024/03/03 09:14:32;;;;;;;62.05;28.17;;;10.30;99.90;;;;;;5062284;28;20099;-70
2024/03/03 09:16:58;;;;;;;59.38;28.15;;;10.30;99.90;;;;;;5059684;28;20037;-69
2024/03/03 09:19:24;;;;;;;60.00;27.73;;;10.50;99.90;;;;;;5062896;28;20059;-69
2024/03/03 09:21:50;;;;;;;56.35;27.00;;;10.50;99.90;;;;;;5078523;28;20037;-72
2024/03/03 09:24:17;;;;;;;58.03;28.05;;;10.60;99.90;;;;;;5079233;28;20062;-68
2024/03/03 09:26:43;;;;;;;60.47;28.10;;;10.70;99.90;;;;;;5054302;28;20025;-69
2024/03/03 09:29:09;;;;;;;58.72;27.35;;;10.80;99.90;;;;;;5074852;28;20097;-69
2024/03/03 09:31:34;;;;;;;57.83;27.05;;;10.90;99.90;;;;;;5074450;28;20131;-70
2024/03/03 09:34:00;;;;;;;56.45;28.17;;;11.00;99.90;;;;;;5075129;28;20441;-73
2024/03/03 09:36:26;;;;;;;56.80;27.25;;;11.10;99.90;;;;;;5076368;28;20123;-71
2024/03/03 09:38:51;;;;;;;50.05;24.63;;;11.20;99.90;;;;;;5075504;28;20119;-71
2024/03/03 09:41:19;;;;;;;59.97;26.33;;;11.30;99.90;;;;;;5071935;28;20044;-71
2024/03/03 09:43:50;;;;;;;54.60;27.25;;;11.40;99.90;;;;;;5074259;28;20029;-69
2024/03/03 09:46:16;;;;;;;53.40;26.48;;;11.50;99.90;;;;;;5066156;28;20032;-70
2024/03/03 09:48:42;;;;;;;57.65;27.20;;;11.60;99.90;;;;;;5072980;28;20316;-70
2024/03/03 09:51:11;;;;;;;53.80;25.80;;;11.70;99.90;;;;;;5073499;28;20027;-72
2024/03/03 09:53:37;;;;;;;56.45;27.25;;;11.80;99.90;;;;;;5072840;28;20028;-70
2024/03/03 09:56:05;;;;;;;53.13;27.42;;;11.90;99.90;;;;;;5073057;28;20042;-71
2024/03/03 09:58:31;;;;;;;50.50;27.48;;;11.90;99.90;;;;;;5056699;28;20117;-71
2024/03/03 10:00:59;;;;;;;55.88;27.05;;;11.90;99.90;;;;;;5074626;28;20119;-73
2024/03/03 10:03:27;;;;;;;52.60;27.48;;;12.00;99.90;;;;;;5080729;28;20043;-70
2024/03/03 10:05:55;;;;;;;55.47;28.38;;;12.10;99.90;;;;;;5077111;28;20037;-70
2024/03/03 10:08:22;;;;;;;54.58;27.98;;;12.20;99.90;;;;;;5061367;28;20078;-69
2024/03/03 10:10:53;;;;;;;54.20;28.00;;;12.30;99.90;;;;;;5075953;28;20028;-71
2024/03/03 10:13:20;;;;;;;46.33;26.27;;;12.40;99.90;;;;;;5065134;28;20131;-72
2024/03/03 10:15:47;;;;;;;54.50;26.92;;;12.50;99.90;;;;;;5078706;28;20047;-74
2024/03/03 10:18:13;;;;;;;58.28;28.92;;;12.60;99.90;;;;;;5081990;28;20056;-71
2024/03/03 10:20:40;;;;;;;55.72;27.73;;;12.70;99.90;;;;;;5080415;28;20151;-72
2024/03/03 10:23:05;;;;;;;57.95;28.23;;;12.80;99.90;;;;;;5082929;28;20035;-73
2024/03/03 10:25:31;;;;;;;61.78;29.70;;;13.00;99.90;;;;;;5084131;28;20038;-70
2024/03/03 10:28:14;;;;;;;56.70;28.08;;;13.10;99.90;;;;;;5076070;28;20032;-71
2024/03/03 10:30:40;;;;;;;56.30;29.67;;;13.30;99.90;;;;;;5078897;28;20432;-71
2024/03/03 10:33:06;;;;;;;54.90;28.23;;;13.50;99.90;;;;;;5075318;28;20523;-68
2024/03/03 10:35:32;;;;;;;54.03;27.63;;;13.70;99.90;;;;;;5076930;28;20032;-73
2024/03/03 10:37:59;;;;;;;50.33;27.83;;;14.00;99.90;;;;;;5076341;28;20029;-71
2024/03/03 10:40:25;;;;;;;60.85;28.50;;;14.20;99.90;;;;;;5065391;28;20036;-72
2024/03/03 10:42:51;;;;;;;54.92;27.98;;;14.40;99.90;;;;;;5072652;28;20106;-69
2024/03/03 10:45:17;;;;;;;53.20;27.17;;;14.80;99.90;;;;;;5078275;28;20085;-70
2024/03/03 10:47:43;;;;;;;49.35;27.27;;;15.10;99.90;;;;;;5065169;28;20059;-69
2024/03/03 10:50:16;;;;;;;49.55;25.67;;;15.30;99.90;;;;;;5067751;28;20035;-72
2024/03/03 10:52:41;;;;;;;48.20;26.45;;;15.40;99.90;;;;;;5078721;28;20429;-70
2024/03/03 10:55:10;;;;;;;46.80;26.08;;;15.60;99.90;;;;;;5080754;28;20501;-74
2024/03/03 10:57:36;;;;;;;45.05;24.88;;;15.80;99.90;;;;;;5057163;28;20036;-69
2024/03/03 11:00:03;;;;;;;45.28;25.65;;;16.10;99.90;;;;;;5077323;28;20093;-69
2024/03/03 11:02:30;;;;;;;45.70;26.45;;;16.20;99.50;;;;;;5076307;28;20031;-71
2024/03/03 11:04:57;;;;;;;42.15;25.70;;;16.30;99.20;;;;;;5063239;28;20132;-71
2024/03/03 11:07:23;;;;;;;42.03;24.77;;;16.50;98.70;;;;;;5076815;28;20032;-73
2024/03/03 11:09:50;;;;;;;42.85;24.13;;;16.60;99.10;;;;;;5069633;28;20024;-70
2024/03/03 11:12:17;;;;;;;43.65;24.52;;;16.90;98.50;;;;;;5086708;28;20024;-71
2024/03/03 11:14:47;;;;;;;43.15;24.17;;;17.30;98.00;;;;;;5085294;28;20182;-75
2024/03/03 11:17:26;;;;;;;39.47;22.95;;;17.40;97.80;;;;;;5086709;28;20040;-71
2024/03/03 11:19:52;;;;;;;43.00;23.73;;;17.60;97.70;;;;;;5062081;28;20049;-71
2024/03/03 11:22:20;;;;;;;45.78;24.08;;;17.60;97.60;;;;;;5075925;28;20039;-67
2024/03/03 11:24:57;;;;;;;37.35;22.67;;;17.60;97.30;;;;;;5081941;28;20400;-74
2024/03/03 11:27:29;;;;;;;33.78;21.23;;;17.80;97.00;;;;;;5080526;28;20579;-70
2024/03/03 11:29:55;;;;;;;35.88;21.40;;;18.00;97.20;;;;;;5075997;28;20615;-66
2024/03/03 11:32:27;;;;;;;38.05;22.42;;;18.20;96.50;;;;;;5079906;28;20565;-69
2024/03/03 11:34:55;;;;;;;36.47;22.38;;;18.20;96.40;;;;;;5086182;28;20059;-70
2024/03/03 11:37:22;;;;;;;37.03;21.77;;;18.60;95.90;;;;;;5066144;28;20044;-72
2024/03/03 11:39:59;;;;;;;37.72;22.25;;;18.80;95.40;;;;;;5082287;28;20556;-69
2024/03/03 11:42:30;;;;;;;36.87;21.43;;;19.10;95.20;;;;;;5085726;28;20035;-68
2024/03/03 11:44:56;;;;;;;36.03;20.40;;;19.30;94.20;;;;;;5080177;28;20589;-68
2024/03/03 11:47:29;;;;;;;35.03;22.45;;;19.60;93.60;;;;;;5078924;28;20203;-69
2024/03/03 11:49:55;;;;;;;34.15;19.60;;;19.40;93.20;;;;;;5078779;28;20036;-69
2024/03/03 11:52:41;;;;;;;38.33;20.10;;;19.20;93.50;;;;;;5083648;28;20606;-69
2024/03/03 11:55:09;;;;;;;33.35;20.20;;;18.90;93.80;;;;;;5080827;28;20071;-69
2024/03/03 11:57:37;;;;;;;35.88;20.38;;;18.80;93.60;;;;;;5084525;28;20032;-72
2024/03/03 12:00:13;;;;;;;33.90;20.15;;;18.60;93.80;;;;;;5083652;28;20028;-70
2024/03/03 12:02:42;;;;;;;32.17;19.65;;;18.40;93.70;;;;;;5082487;28;20039;-69
2024/03/03 12:05:15;;;;;;;34.67;19.83;;;18.20;93.70;;;;;;5085634;28;20040;-71
2024/03/03 12:07:46;;;;;;;37.38;20.65;;;18.00;94.00;;;;;;5084838;28;20029;-70
2024/03/03 12:10:18;;;;;;;35.60;20.60;;;17.80;94.00;;;;;;5065813;28;20024;-69
2024/03/03 12:12:51;;;;;;;31.27;19.00;;;17.40;94.60;;;;;;5078697;28;20024;-69
2024/03/03 12:15:18;;;;;;;32.67;19.42;;;17.40;94.80;;;;;;5074641;28;20029;-70
2024/03/03 12:17:47;;;;;;;35.72;20.33;;;16.80;95.00;;;;;;5079311;28;20553;-68
2024/03/03 12:20:15;;;;;;;37.72;20.48;;;16.90;95.20;;;;;;5067154;28;20040;-69
2024/03/03 12:22:40;;;;;;;32.95;19.63;;;16.90;95.20;;;;;;5080303;28;20052;-68
2024/03/03 12:25:07;;;;;;;34.58;20.13;;;16.80;95.50;;;;;;5077024;28;20055;-71
2024/03/03 12:27:33;;;;;;;38.42;20.33;;;16.90;95.70;;;;;;5079015;28;20032;-71
2024/03/03 12:30:00;;;;;;;38.17;21.13;;;17.00;95.90;;;;;;5079307;28;20126;-72
2024/03/03 12:32:28;;;;;;;37.63;20.60;;;17.10;95.60;;;;;;5078461;28;20042;-71
2024/03/03 12:34:56;;;;;;;33.28;20.52;;;16.90;95.40;;;;;;5076273;28;20033;-69